Startpagina
METAR-TAF:

METAR-TAF

Vliegvelden :

Luchthaven Schiphol

Amsterdam, Nederland

breedte: 52-18N, lengte: 004-46E, hoogte: -4 m

Actueel weer

Dit bericht is 38 minuten geleden gemaakt, om 11:25 UTC
Wind 13 kt uit het zuidzuidoosten
Temperatuur 9°C
Vochtigheid 81%
Druk 1003 hPa
Zicht 10 km of meer
Weinig wolken op 1400 ft

METAR: EHAM 221125Z 15013KT 9999 FEW014 09/06 Q1003 NOSIG

Tijdstip: 13:03 (12:03 UTC)

Verwachting

Dit bericht is 54 minuten geleden gemaakt, om 11:09 UTC
Verwachting geldig van 22 om 12 UTC tot 23 om 18 UTC
Wind 13 kt uit het zuidzuidoosten
Zicht 10 km of meer
geen wolken onder 1500 m en geen cumulonimbus
Wijzigt naar
van 22 om 14 UTC tot 22 om 17 UTC
Wind 11 kt uit het zuidoosten
Wijzigt naar
van 22 om 22 UTC tot 23 om 01 UTC
Wind 13 kt uit het oosten

TAF: EHAM 221109Z 2212/2318 16013KT CAVOK BECMG 2214/2217 13011KT BECMG 2222/2301 10013KT

Waarnemingen en weersverwachtingen van meer dan 4000 vliegvelden (METAR en TAF).

De beschikbare stations zijn de gele en rode punten op de kaart.

Ga met uw muis naar het station om de naam te zien.

Klik dan om waarnemingen en weersverwachtingen te zien.

kaart wijzigen: klik op de groene knoppen met een zwart kruis om in te zoomen, op de groene knop met een streepje om uit te zoomen of op de groene pijlen voor aangrenzende kaarten.


METAR-TAF: